createdAt,value
2023-04-14T00:00:21.717Z,8.80
2023-04-14T00:02:57.534Z,6.80
2023-04-14T00:05:35.915Z,7.60
2023-04-14T00:08:29.798Z,7.18
2023-04-14T00:11:22.621Z,11.43
2023-04-14T00:18:04.003Z,13.50
2023-04-14T00:20:40.362Z,12.10
2023-04-14T00:23:12.894Z,11.50
2023-04-14T00:25:42.651Z,8.68
2023-04-14T00:28:12.630Z,8.80
2023-04-14T00:30:42.077Z,7.63
2023-04-14T00:33:14.603Z,7.80
2023-04-14T00:35:45.526Z,7.88
2023-04-14T00:38:18.220Z,6.75
2023-04-14T00:40:48.035Z,7.10
2023-04-14T00:43:20.736Z,7.13
2023-04-14T00:45:52.751Z,8.02
2023-04-14T00:48:22.586Z,13.45
2023-04-14T00:50:54.096Z,13.60
2023-04-14T00:53:24.121Z,20.55
2023-04-14T00:55:53.612Z,21.05
2023-04-14T00:58:23.054Z,19.40
2023-04-14T01:00:55.847Z,13.98
2023-04-14T01:03:25.936Z,10.43
2023-04-14T01:05:57.147Z,9.48
2023-04-14T01:08:27.340Z,7.25
2023-04-14T01:11:09.471Z,7.88
2023-04-14T01:13:46.325Z,7.60
2023-04-14T01:16:21.253Z,7.20
2023-04-14T01:19:00.973Z,5.55
2023-04-14T01:21:36.857Z,8.10
2023-04-14T01:24:31.831Z,6.63
2023-04-14T01:27:09.562Z,6.05
2023-04-14T01:30:20.901Z,6.07
2023-04-14T01:32:55.295Z,6.00
2023-04-14T01:35:31.652Z,5.93
2023-04-14T01:38:08.174Z,5.78
2023-04-14T01:40:39.753Z,6.75
2023-04-14T01:43:14.807Z,5.13
2023-04-14T01:45:50.631Z,6.38
2023-04-14T01:48:22.564Z,5.90
2023-04-14T01:50:52.586Z,5.10
2023-04-14T01:53:26.013Z,5.45
2023-04-14T01:55:58.062Z,5.93
2023-04-14T01:58:29.863Z,6.05
2023-04-14T02:01:34.341Z,6.18
2023-04-14T02:04:14.832Z,4.72
2023-04-14T02:06:44.546Z,5.97
2023-04-14T02:09:14.800Z,5.43
2023-04-14T02:11:46.467Z,5.05
2023-04-14T02:14:17.241Z,4.43
2023-04-14T02:16:49.483Z,4.38
2023-04-14T02:19:21.689Z,5.20
2023-04-14T02:21:55.230Z,4.10
2023-04-14T02:24:24.847Z,4.60
2023-04-14T02:26:59.966Z,5.10
2023-04-14T02:29:33.285Z,4.97
2023-04-14T02:32:05.140Z,4.47
2023-04-14T02:34:39.794Z,5.72
2023-04-14T02:37:15.339Z,4.50
2023-04-14T02:39:48.849Z,4.00
2023-04-14T02:42:19.157Z,4.40
2023-04-14T02:44:52.982Z,4.15
2023-04-14T02:47:29.123Z,4.55
2023-04-14T02:50:04.184Z,4.60
2023-04-14T02:52:36.409Z,5.40
2023-04-14T02:55:07.955Z,5.10
2023-04-14T02:57:38.410Z,4.78
2023-04-14T03:00:10.079Z,4.80
2023-04-14T03:02:52.356Z,5.68
2023-04-14T03:05:24.044Z,5.05
2023-04-14T03:08:03.759Z,5.60
2023-04-14T03:10:35.252Z,5.20
2023-04-14T03:13:08.291Z,4.88
2023-04-14T03:15:39.230Z,5.43
2023-04-14T03:18:09.130Z,4.57
2023-04-14T03:20:43.556Z,5.53
2023-04-14T03:23:14.792Z,5.15
2023-04-14T03:25:51.830Z,5.30
2023-04-14T03:28:29.406Z,5.32
2023-04-14T03:31:03.925Z,5.90
2023-04-14T03:33:48.575Z,5.63
2023-04-14T03:36:21.555Z,5.32
2023-04-14T03:38:55.515Z,4.35
2023-04-14T03:41:27.073Z,4.95
2023-04-14T03:43:57.516Z,4.32
2023-04-14T03:46:29.212Z,6.00
2023-04-14T03:49:02.497Z,5.82
2023-04-14T03:51:36.583Z,5.45
2023-04-14T03:54:10.286Z,4.85
2023-04-14T03:56:41.664Z,5.47
2023-04-14T03:59:14.566Z,5.40
2023-04-14T04:01:46.360Z,4.80
2023-04-14T04:04:16.308Z,5.47
2023-04-14T04:06:49.650Z,5.30
2023-04-14T04:09:20.834Z,5.05
2023-04-14T04:11:52.705Z,5.63
2023-04-14T04:14:23.992Z,5.40
2023-04-14T04:16:55.226Z,5.97
2023-04-14T04:19:26.568Z,5.28
2023-04-14T04:22:00.973Z,5.40
2023-04-14T04:24:33.514Z,5.15
2023-04-14T04:27:02.838Z,5.80
2023-04-14T04:29:33.139Z,5.15
2023-04-14T04:32:02.901Z,5.10
2023-04-14T04:34:33.470Z,6.28
2023-04-14T04:37:07.547Z,4.38
2023-04-14T04:39:36.851Z,5.05
2023-04-14T04:42:07.011Z,4.60
2023-04-14T04:44:36.625Z,5.88
2023-04-14T04:47:06.682Z,5.78
2023-04-14T04:49:36.088Z,5.90
2023-04-14T04:52:07.065Z,5.33
2023-04-14T04:54:36.818Z,5.47
2023-04-14T04:57:06.068Z,4.50
2023-04-14T04:59:36.691Z,5.87
2023-04-14T05:02:07.991Z,5.60
2023-04-14T05:04:37.407Z,5.80
2023-04-14T05:07:08.089Z,5.32
2023-04-14T05:09:37.295Z,5.93
2023-04-14T05:12:06.944Z,5.75
2023-04-14T05:14:36.718Z,6.25
2023-04-14T05:17:06.145Z,6.13
2023-04-14T05:19:35.716Z,6.10
2023-04-14T05:22:06.441Z,6.13
2023-04-14T05:24:35.699Z,5.03
2023-04-14T05:27:14.295Z,5.90
2023-04-14T05:29:44.221Z,5.70
2023-04-14T05:32:14.838Z,6.03
2023-04-14T05:34:44.244Z,4.60
2023-04-14T05:37:14.991Z,5.53
2023-04-14T05:39:44.329Z,5.97
2023-04-14T05:42:13.456Z,5.60
2023-04-14T05:44:42.750Z,5.15
2023-04-14T05:47:11.998Z,5.90
2023-04-14T05:49:41.262Z,4.72
2023-04-14T05:52:10.562Z,5.80
2023-04-14T05:54:43.074Z,4.95
2023-04-14T05:57:12.668Z,6.80
2023-04-14T05:59:42.757Z,5.28
2023-04-14T06:02:12.028Z,5.00
2023-04-14T06:04:41.477Z,5.18
2023-04-14T06:07:10.669Z,5.97
2023-04-14T06:09:42.770Z,6.30
2023-04-14T06:12:12.930Z,10.68
2023-04-14T06:14:42.063Z,9.60
2023-04-14T06:17:11.220Z,8.57
2023-04-14T06:19:40.714Z,7.38
2023-04-14T06:22:09.990Z,6.55
2023-04-14T06:24:40.905Z,6.80
2023-04-14T06:27:10.846Z,6.85
2023-04-14T06:29:40.078Z,6.70
2023-04-14T06:32:09.419Z,7.50
2023-04-14T06:34:38.765Z,6.53
2023-04-14T06:37:07.984Z,6.15
2023-04-14T06:39:37.112Z,6.45
2023-04-14T06:42:07.828Z,6.82
2023-04-14T06:44:39.378Z,6.60
2023-04-14T06:47:09.229Z,6.45
2023-04-14T06:49:38.442Z,6.53
2023-04-14T06:52:08.063Z,7.13
2023-04-14T06:54:37.232Z,7.28
2023-04-14T06:57:14.150Z,7.50
2023-04-14T06:59:43.402Z,6.60
2023-04-14T07:02:13.234Z,6.97
2023-04-14T07:04:42.492Z,6.55
2023-04-14T07:07:11.949Z,5.75
2023-04-14T07:09:41.449Z,7.35
2023-04-14T07:12:16.046Z,6.30
2023-04-14T07:14:51.220Z,6.65
2023-04-14T07:17:21.097Z,5.53
2023-04-14T07:19:50.321Z,6.85
2023-04-14T07:22:19.459Z,6.75
2023-04-14T07:24:48.867Z,7.35
2023-04-14T07:27:19.427Z,7.18
2023-04-14T07:29:48.788Z,7.95
2023-04-14T07:32:18.745Z,6.50
2023-04-14T07:34:48.161Z,7.72
2023-04-14T07:37:17.767Z,7.22
2023-04-14T07:39:47.047Z,6.97
2023-04-14T07:42:16.392Z,7.90
2023-04-14T07:44:46.957Z,6.40
2023-04-14T07:47:16.370Z,6.45
2023-04-14T07:49:45.571Z,6.75
2023-04-14T07:52:14.757Z,7.13
2023-04-14T07:54:45.913Z,6.30
2023-04-14T07:57:15.608Z,7.45
2023-04-14T07:59:46.175Z,7.15
2023-04-14T08:02:15.432Z,7.90
2023-04-14T08:04:44.709Z,7.63
2023-04-14T08:07:13.788Z,6.45
2023-04-14T08:09:43.566Z,7.75
2023-04-14T08:12:12.747Z,7.32
2023-04-14T08:14:42.223Z,6.22
2023-04-14T08:17:12.802Z,7.32
2023-04-14T08:19:41.938Z,10.90
2023-04-14T08:22:11.243Z,8.40
2023-04-14T08:24:40.769Z,5.78
2023-04-14T08:27:09.901Z,6.00
2023-04-14T08:29:39.108Z,7.03
2023-04-14T08:32:08.478Z,6.70
2023-04-14T08:34:39.135Z,9.07
2023-04-14T08:37:28.349Z,5.32
2023-04-14T08:39:57.502Z,6.10
2023-04-14T08:42:27.520Z,5.53
2023-04-14T08:44:57.623Z,12.15
2023-04-14T08:47:28.671Z,41.58
2023-04-14T08:50:04.441Z,7.85
2023-04-14T08:52:36.752Z,9.15
2023-04-14T08:55:08.521Z,8.52
2023-04-14T08:57:38.086Z,11.52
2023-04-14T09:00:09.828Z,9.55
2023-04-14T09:02:41.629Z,7.82
2023-04-14T09:05:14.223Z,7.75
2023-04-14T09:07:44.048Z,5.82
2023-04-14T09:10:14.285Z,5.28
2023-04-14T09:12:44.165Z,5.22
2023-04-14T09:15:14.907Z,6.50
2023-04-14T09:17:44.458Z,6.25
2023-04-14T09:20:35.592Z,5.28
2023-04-14T09:23:06.409Z,5.70
2023-04-14T09:25:36.677Z,6.05
2023-04-14T09:28:06.197Z,6.03
2023-04-14T09:30:37.642Z,5.75
2023-04-14T09:33:08.296Z,5.07
2023-04-14T09:35:49.800Z,6.20
2023-04-14T09:38:34.657Z,5.43
2023-04-14T09:41:04.548Z,4.70
2023-04-14T09:43:34.111Z,6.25
2023-04-14T09:46:08.570Z,14.13
2023-04-14T09:48:50.561Z,8.52
2023-04-14T09:51:24.253Z,16.33
2023-04-14T09:53:55.956Z,6.82
2023-04-14T09:56:29.138Z,16.75
2023-04-14T09:59:01.459Z,7.97
2023-04-14T10:01:34.287Z,12.60
2023-04-14T10:04:04.316Z,9.27
2023-04-14T10:06:35.109Z,11.18
2023-04-14T10:09:06.001Z,7.30
2023-04-14T10:11:36.640Z,7.10
2023-04-14T10:14:07.592Z,9.82
2023-04-14T10:16:36.925Z,8.07
2023-04-14T10:19:06.495Z,6.55
2023-04-14T10:21:39.496Z,10.00
2023-04-14T10:24:08.831Z,7.65
2023-04-14T10:26:38.046Z,7.25
2023-04-14T10:29:07.242Z,5.35
2023-04-14T10:31:46.220Z,6.30
2023-04-14T10:34:18.012Z,4.90
2023-04-14T10:36:50.277Z,5.60
2023-04-14T10:39:25.819Z,6.05
2023-04-14T10:41:59.524Z,5.65
2023-04-14T10:44:30.141Z,6.18
2023-04-14T10:47:02.292Z,5.88
2023-04-14T10:49:33.328Z,5.43
2023-04-14T10:52:05.650Z,6.00
2023-04-14T10:54:51.325Z,6.20
2023-04-14T10:57:23.226Z,6.88
2023-04-14T10:59:57.302Z,7.85
2023-04-14T11:02:28.839Z,6.90
2023-04-14T11:05:02.458Z,7.53
2023-04-14T11:07:45.773Z,6.20
2023-04-14T11:10:34.061Z,6.10
2023-04-14T11:13:08.514Z,6.10
2023-04-14T11:15:51.997Z,5.93
2023-04-14T11:18:33.990Z,6.72
2023-04-14T11:21:07.861Z,6.05
2023-04-14T11:23:39.698Z,5.72
2023-04-14T11:26:10.056Z,6.80
2023-04-14T11:28:40.770Z,6.43
2023-04-14T11:31:12.357Z,5.97
2023-04-14T11:33:42.816Z,5.53
2023-04-14T11:36:13.049Z,5.50
2023-04-14T11:38:45.909Z,6.50
2023-04-14T11:41:26.645Z,5.80
2023-04-14T11:43:55.769Z,6.20
2023-04-14T11:46:25.037Z,7.20
2023-04-14T11:48:57.336Z,5.97
2023-04-14T11:51:33.702Z,6.35
2023-04-14T11:54:04.366Z,6.47
2023-04-14T11:56:34.011Z,5.68
2023-04-14T11:59:04.103Z,6.43
2023-04-14T12:01:34.076Z,6.45
2023-04-14T12:04:04.377Z,5.47
2023-04-14T12:06:39.188Z,5.75
2023-04-14T12:09:12.111Z,6.40
2023-04-14T12:11:41.116Z,6.45
2023-04-14T12:14:10.308Z,7.60
2023-04-14T12:16:39.494Z,6.28
2023-04-14T12:19:08.604Z,6.20
2023-04-14T12:21:37.636Z,5.47
2023-04-14T12:24:07.079Z,5.07
2023-04-14T12:26:38.662Z,5.75
2023-04-14T12:29:08.995Z,6.55
2023-04-14T12:31:43.996Z,5.00
2023-04-14T12:34:18.320Z,5.80
2023-04-14T12:36:53.029Z,5.70
2023-04-14T12:39:26.189Z,5.28
2023-04-14T12:42:01.144Z,5.47
2023-04-14T12:44:30.576Z,5.57
2023-04-14T12:46:59.605Z,6.75
2023-04-14T12:49:36.375Z,5.97
2023-04-14T12:52:08.190Z,6.53
2023-04-14T12:54:51.945Z,5.25
2023-04-14T12:57:23.953Z,6.43
2023-04-14T12:59:53.200Z,7.22
2023-04-14T13:02:23.209Z,5.72
2023-04-14T13:04:52.382Z,5.88
2023-04-14T13:07:21.654Z,5.05
2023-04-14T13:09:51.411Z,6.15
2023-04-14T13:12:20.828Z,6.50
2023-04-14T13:14:51.295Z,6.55
2023-04-14T13:17:20.671Z,7.38
2023-04-14T13:19:49.840Z,10.13
2023-04-14T13:22:18.852Z,7.68
2023-04-14T13:24:52.044Z,12.43
2023-04-14T13:27:21.333Z,20.98
2023-04-14T13:29:52.091Z,16.25
2023-04-14T13:32:21.196Z,13.82
2023-04-14T13:34:52.651Z,14.23
2023-04-14T13:37:22.590Z,11.57
2023-04-14T13:39:51.848Z,10.57
2023-04-14T13:42:20.989Z,7.22
2023-04-14T13:44:51.591Z,6.93
2023-04-14T13:47:20.606Z,7.85
2023-04-14T13:49:49.646Z,7.05
2023-04-14T13:52:18.657Z,10.02
2023-04-14T13:54:47.646Z,8.30
2023-04-14T13:57:16.626Z,10.15
2023-04-14T13:59:46.278Z,5.82
2023-04-14T14:02:17.241Z,6.22
2023-04-14T14:04:46.856Z,7.32
2023-04-14T14:07:16.019Z,6.78
2023-04-14T14:09:46.004Z,5.47
2023-04-14T14:12:15.203Z,7.88
2023-04-14T14:14:44.428Z,6.55
2023-04-14T14:17:13.727Z,18.65
2023-04-14T14:19:47.193Z,8.02
2023-04-14T14:22:16.368Z,16.20
2023-04-14T14:24:45.862Z,6.20
2023-04-14T14:27:15.126Z,9.52
2023-04-14T14:29:44.427Z,7.10
2023-04-14T14:32:15.675Z,9.63
2023-04-14T14:34:47.688Z,6.45
2023-04-14T14:37:17.459Z,9.20
2023-04-14T14:39:46.900Z,9.60
2023-04-14T14:42:16.152Z,9.35
2023-04-14T14:44:45.426Z,7.20
2023-04-14T14:47:14.819Z,7.10
2023-04-14T14:49:52.950Z,6.32
2023-04-14T14:52:31.454Z,11.55
2023-04-14T14:55:00.731Z,8.00
2023-04-14T14:57:30.578Z,7.03
2023-04-14T14:59:59.958Z,8.90
2023-04-14T15:02:29.450Z,7.55
2023-04-14T15:05:00.377Z,7.10
2023-04-14T15:07:29.597Z,6.03
2023-04-14T15:09:58.796Z,8.75
2023-04-14T15:12:28.093Z,7.65
2023-04-14T15:14:57.563Z,12.38
2023-04-14T15:17:27.420Z,10.75
2023-04-14T15:19:56.944Z,6.70
2023-04-14T15:22:27.541Z,5.75
2023-04-14T15:24:56.853Z,5.53
2023-04-14T15:27:26.093Z,5.22
2023-04-14T15:29:55.598Z,5.75
2023-04-14T15:32:26.859Z,5.15
2023-04-14T15:34:56.759Z,5.38
2023-04-14T15:37:28.055Z,4.75
2023-04-14T15:39:57.546Z,5.25
2023-04-14T15:42:26.972Z,5.18
2023-04-14T15:44:56.263Z,4.90
2023-04-14T15:47:25.572Z,6.25
2023-04-14T15:50:09.270Z,4.65
2023-04-14T15:52:41.396Z,4.65
2023-04-14T15:55:11.930Z,6.32
2023-04-14T15:57:41.135Z,4.88
2023-04-14T16:00:11.518Z,8.25
2023-04-14T16:02:45.883Z,4.43
2023-04-14T16:05:15.438Z,4.70
2023-04-14T16:07:46.401Z,4.95
2023-04-14T16:10:22.757Z,3.60
2023-04-14T16:12:51.989Z,5.70
2023-04-14T16:15:21.094Z,4.55
2023-04-14T16:17:51.296Z,4.75
2023-04-14T16:20:20.712Z,5.28
2023-04-14T16:22:51.392Z,5.38
2023-04-14T16:25:22.258Z,4.00
2023-04-14T16:27:52.192Z,4.32
2023-04-14T16:30:21.627Z,4.95
2023-04-14T16:32:50.769Z,5.55
2023-04-14T16:35:20.020Z,4.97
2023-04-14T16:37:50.661Z,4.93
2023-04-14T16:40:19.960Z,5.78
2023-04-14T16:42:49.407Z,4.78
2023-04-14T16:46:10.753Z,4.28
2023-04-14T16:48:40.566Z,6.30
2023-04-14T16:51:11.758Z,4.97
2023-04-14T16:53:42.898Z,4.07
2023-04-14T16:56:13.301Z,4.55
2023-04-14T16:58:43.593Z,4.80
2023-04-14T17:01:12.895Z,6.35
2023-04-14T17:03:42.550Z,4.90
2023-04-14T17:06:11.979Z,5.88
2023-04-14T17:08:43.687Z,5.97
2023-04-14T17:11:15.540Z,4.38
2023-04-14T17:13:46.292Z,4.80
2023-04-14T17:16:17.366Z,4.80
2023-04-14T17:18:51.301Z,4.38
2023-04-14T17:21:20.658Z,4.40
2023-04-14T17:23:51.358Z,4.90
2023-04-14T17:26:20.905Z,6.63
2023-04-14T17:28:50.144Z,5.68
2023-04-14T17:31:19.906Z,6.45
2023-04-14T17:33:49.167Z,6.30
2023-04-14T17:36:18.434Z,4.60
2023-04-14T17:38:48.084Z,4.32
2023-04-14T17:41:19.006Z,4.78
2023-04-14T17:43:48.363Z,5.22
2023-04-14T17:46:18.041Z,4.85
2023-04-14T17:48:47.447Z,4.95
2023-04-14T17:51:16.718Z,6.97
2023-04-14T17:53:46.030Z,7.57
2023-04-14T17:56:15.866Z,5.93
2023-04-14T17:58:48.201Z,6.63
2023-04-14T18:01:17.575Z,7.22
2023-04-14T18:03:46.934Z,7.03
2023-04-14T18:06:16.901Z,7.30
2023-04-14T18:08:46.120Z,9.63
2023-04-14T18:11:15.326Z,11.13
2023-04-14T18:13:45.933Z,7.55
2023-04-14T18:16:15.058Z,5.45
2023-04-14T18:18:44.215Z,5.90
2023-04-14T18:21:13.781Z,6.50
2023-04-14T18:23:43.360Z,5.45
2023-04-14T18:28:46.271Z,7.00
2023-04-14T18:31:16.272Z,6.82
2023-04-14T18:33:45.438Z,7.10
2023-04-14T18:36:14.594Z,7.72
2023-04-14T18:38:43.648Z,7.47
2023-04-14T18:41:12.767Z,7.47
2023-04-14T18:43:41.856Z,6.65
2023-04-14T18:46:12.316Z,8.15
2023-04-14T18:48:41.684Z,7.50
2023-04-14T18:51:11.840Z,7.30
2023-04-14T18:53:42.071Z,6.95
2023-04-14T18:56:11.092Z,9.20
2023-04-14T18:58:40.334Z,7.60
2023-04-14T19:01:09.774Z,7.90
2023-04-14T19:03:40.446Z,8.25
2023-04-14T19:06:09.898Z,7.70
2023-04-14T19:08:40.032Z,7.45
2023-04-14T19:11:10.029Z,7.53
2023-04-14T19:13:41.960Z,10.25
2023-04-14T19:16:13.501Z,11.43
2023-04-14T19:18:44.694Z,10.70
2023-04-14T19:21:14.781Z,8.55
2023-04-14T19:23:45.669Z,9.30
2023-04-14T19:26:14.705Z,9.00
2023-04-14T19:28:45.895Z,10.52
2023-04-14T19:31:15.824Z,9.75
2023-04-14T19:34:14.724Z,9.27
2023-04-14T19:36:43.742Z,10.02
2023-04-14T19:39:12.761Z,11.30
2023-04-14T19:41:42.296Z,11.18
2023-04-14T19:44:12.162Z,9.50
2023-04-14T19:46:42.306Z,10.85
2023-04-14T19:49:11.946Z,11.50
2023-04-14T19:51:43.198Z,11.68
2023-04-14T19:54:12.245Z,11.40
2023-04-14T19:56:41.485Z,11.48
2023-04-14T19:59:10.469Z,12.38
2023-04-14T20:01:41.102Z,11.10
2023-04-14T20:04:12.717Z,10.90
2023-04-14T20:06:44.055Z,11.70
2023-04-14T20:09:13.032Z,9.00
2023-04-14T20:11:42.027Z,10.13
2023-04-14T20:14:11.095Z,12.85
2023-04-14T20:16:40.715Z,10.65
2023-04-14T20:19:10.028Z,10.70
2023-04-14T20:21:40.337Z,11.73
2023-04-14T20:24:11.199Z,11.70
2023-04-14T20:26:42.752Z,12.88
2023-04-14T20:29:12.632Z,12.05
2023-04-14T20:31:44.264Z,12.07
2023-04-14T20:34:13.550Z,12.98
2023-04-14T20:36:44.959Z,13.02
2023-04-14T20:39:15.570Z,11.52
2023-04-14T20:41:44.603Z,14.25
2023-04-14T20:44:14.620Z,13.00
2023-04-14T20:46:45.280Z,11.80
2023-04-14T20:49:14.287Z,11.02
2023-04-14T20:51:43.430Z,10.80
2023-04-14T20:54:12.433Z,10.50
2023-04-14T20:56:42.903Z,10.93
2023-04-14T20:59:12.463Z,10.32
2023-04-14T21:01:42.744Z,10.40
2023-04-14T21:04:12.153Z,10.18
2023-04-14T21:06:41.255Z,9.07
2023-04-14T21:09:10.241Z,11.35
2023-04-14T21:11:39.623Z,11.43
2023-04-14T21:15:29.924Z,10.57
2023-04-14T21:16:59.594Z,12.10
2023-04-14T21:19:28.815Z,13.70
2023-04-14T21:21:58.133Z,12.98
2023-04-14T21:24:27.701Z,11.48
2023-04-14T21:26:57.582Z,11.88
2023-04-14T21:29:28.263Z,14.05
2023-04-14T21:31:57.456Z,13.43
2023-04-14T21:34:27.520Z,12.43
2023-04-14T21:36:57.795Z,14.05
2023-04-14T21:39:29.983Z,15.15
2023-04-14T21:41:59.116Z,17.33
2023-04-14T21:44:29.942Z,18.65
2023-04-14T21:46:59.205Z,17.58
2023-04-14T21:49:28.357Z,18.50
2023-04-14T21:51:57.520Z,18.52
2023-04-14T21:54:30.234Z,16.73
2023-04-14T21:56:59.471Z,15.23
2023-04-14T21:59:29.977Z,17.83
2023-04-14T22:01:59.255Z,14.48
2023-04-14T22:04:35.830Z,16.60
2023-04-14T22:07:16.912Z,17.35
2023-04-14T22:09:47.031Z,15.35
2023-04-14T22:12:16.634Z,16.13
2023-04-14T22:14:47.013Z,18.77
2023-04-14T22:17:16.507Z,20.08
2023-04-14T22:19:45.577Z,18.20
2023-04-14T22:22:14.711Z,20.08
2023-04-14T22:24:43.753Z,18.75
2023-04-14T22:27:13.128Z,19.27
2023-04-14T22:29:42.319Z,17.20
2023-04-14T22:32:12.801Z,18.90
2023-04-14T22:34:41.834Z,18.98
2023-04-14T22:37:10.845Z,18.55
2023-04-14T22:39:39.831Z,18.77
2023-04-14T22:42:08.874Z,18.02
2023-04-14T22:45:09.043Z,17.73
2023-04-14T22:47:41.821Z,19.55
2023-04-14T22:50:11.549Z,20.20
2023-04-14T22:52:41.021Z,19.33
2023-04-14T22:55:10.549Z,21.60
2023-04-14T22:57:39.645Z,20.75
2023-04-14T23:00:11.655Z,20.05
2023-04-14T23:02:42.324Z,20.80
2023-04-14T23:05:16.763Z,20.58
2023-04-14T23:07:46.007Z,21.25
2023-04-14T23:10:15.608Z,21.08
2023-04-14T23:12:44.594Z,21.17
2023-04-14T23:15:13.732Z,21.85
2023-04-14T23:17:44.223Z,26.38
2023-04-14T23:20:13.910Z,20.95
2023-04-14T23:22:43.073Z,24.52
2023-04-14T23:25:12.209Z,23.45
2023-04-14T23:27:41.715Z,22.60
2023-04-14T23:30:11.612Z,21.40
2023-04-14T23:32:40.924Z,25.27
2023-04-14T23:35:12.023Z,24.52
2023-04-14T23:37:43.216Z,24.45
2023-04-14T23:40:13.911Z,25.00
2023-04-14T23:42:43.151Z,23.42
2023-04-14T23:45:12.260Z,24.23
2023-04-14T23:47:41.472Z,26.52
2023-04-14T23:50:12.356Z,24.92
2023-04-14T23:52:41.822Z,26.92
2023-04-14T23:55:11.397Z,22.92
2023-04-14T23:57:40.708Z,25.45
